Time;durP1;ratioP1;P1;durP2;ratioP2;P2;SDS_P1;SDS_P2;PMS_P1;PMS_P2;Temp;Humidity;BMP_temperature;BMP_pressure;BME280_temperature;BME280_humidity;BME280_pressure;Samples;Min_cycle;Max_cycle;Signal;HPM_P1;HPM_P2
2022/01/23 00:02:19;;;;;;;;;;;;;;;-3.14;54.81;95560.09;5073474;28;1005;-49
2022/01/23 00:04:45;;;;;;;;;;;;;;;-3.10;54.93;95556.41;5073363;28;1049;-49
2022/01/23 00:07:13;;;;;;;;;;;;;;;-3.04;55.14;95560.53;5073366;28;1009;-49
2022/01/23 00:09:40;;;;;;;;;;;;;;;-3.08;54.59;95570.28;5073401;28;993;-49
2022/01/23 00:12:11;;;;;;;;;;;;;;;-3.11;55.15;95578.28;5073003;28;1050;-49
2022/01/23 00:17:23;;;;;;;;;;;;;;;-3.11;55.59;95577.41;5072952;28;1976;-49
2022/01/23 00:19:52;;;;;;;;;;;;;;;-3.15;55.85;95581.94;5073493;28;993;-49
2022/01/23 00:22:19;;;;;;;;;;;;;;;-3.13;55.86;95574.84;5073249;28;1024;-49
2022/01/23 00:30:33;;;;;;;;;;;;;;;-3.19;56.87;95585.59;5073024;28;1081;-49
2022/01/23 00:33:01;;;;;;;;;;;;;;;-3.19;56.97;95576.00;5073251;28;1059;-49
2022/01/23 00:35:27;;;;;;;;;;;;;;;-3.02;56.33;95580.47;5072768;28;1157;-49
2022/01/23 00:37:54;;;;;;;;;;;;;;;-3.23;57.02;95590.13;5072775;28;1906;-49
2022/01/23 00:40:21;;;;;;;;;;;;;;;-3.36;58.01;95589.81;5072950;28;1037;-49
2022/01/23 00:42:47;;;;;;;;;;;;;;;-3.45;58.31;95594.56;5073008;28;1043;-49
2022/01/23 00:47:40;;;;;;;;;;;;;;;-3.66;58.82;95588.50;5072823;28;1007;-49
2022/01/23 00:50:06;;;;;;;;;;;;;;;-3.61;59.67;95586.53;5073141;28;1052;-49
2022/01/23 00:52:32;;;;;;;;;;;;;;;-3.34;57.81;95582.75;5072950;28;1008;-49
2022/01/23 00:55:00;;;;;;;;;;;;;;;-3.25;57.54;95585.88;5072844;28;1124;-49
2022/01/23 00:57:26;;;;;;;;;;;;;;;-3.37;58.04;95588.09;5072112;28;1922;-49
2022/01/23 00:59:52;;;;;;;;;;;;;;;-3.43;58.73;95600.59;5072905;28;1052;-49
2022/01/23 01:02:18;;;;;;;;;;;;;;;-3.75;59.02;95600.19;5072802;28;1028;-49
2022/01/23 01:04:44;;;;;;;;;;;;;;;-3.88;58.82;95592.00;5072720;28;1071;-49
2022/01/23 01:07:10;;;;;;;;;;;;;;;-3.99;59.49;95583.75;5072475;28;1046;-49
2022/01/23 01:09:36;;;;;;;;;;;;;;;-4.03;59.52;95600.47;5071743;28;958;-49
2022/01/23 01:12:05;;;;;;;;;;;;;;;-3.82;59.57;95598.75;5072713;28;1053;-49
2022/01/23 01:31:23;;;;;;;;;;;;;;;-3.37;58.75;95609.03;5076247;28;1020;-49
2022/01/23 01:33:55;;;;;;;;;;;;;;;-3.41;58.92;95609.25;5075950;28;997;-49
2022/01/23 01:37:04;;;;;;;;;;;;;;;-3.47;59.38;95606.84;5076255;28;1219;-49
2022/01/23 01:39:11;;;;;;;;;;;;;;;-3.48;60.48;95615.63;5070384;28;1749;-49
2022/01/23 01:41:38;;;;;;;;;;;;;;;-3.71;60.60;95603.53;5075000;28;982;-49
2022/01/23 01:44:05;;;;;;;;;;;;;;;-3.82;60.73;95602.19;5076108;28;981;-49
2022/01/23 01:46:31;;;;;;;;;;;;;;;-3.73;59.93;95603.59;5075786;28;1096;-49
2022/01/23 01:48:57;;;;;;;;;;;;;;;-3.73;59.75;95603.59;5075674;28;1093;-49
2022/01/23 01:51:24;;;;;;;;;;;;;;;-3.97;60.14;95610.66;5075924;28;1039;-49
2022/01/23 01:53:57;;;;;;;;;;;;;;;-4.06;60.18;95611.03;5075881;28;977;-49
2022/01/23 01:56:23;;;;;;;;;;;;;;;-3.97;61.10;95611.50;5075806;28;1734;-49
2022/01/23 02:09:22;;;;;;;;;;;;;;;-3.99;61.93;95599.44;5075523;28;1031;-49
2022/01/23 02:14:35;;;;;;;;;;;;;;;-4.06;61.70;95598.84;5075272;28;1052;-49
2022/01/23 02:55:11;;;;;;;;;;;;;;;-4.61;60.50;95607.09;5074741;28;989;-49
2022/01/23 03:00:14;;;;;;;;;;;;;;;-4.64;60.24;95617.63;5074495;28;1045;-49
2022/01/23 03:02:52;;;;;;;;;;;;;;;-4.68;59.98;95610.81;5074752;28;1000;-49
2022/01/23 03:06:11;;;;;;;;;;;;;;;-4.61;58.97;95621.88;5074459;28;1009;-49
2022/01/23 03:08:25;;;;;;;;;;;;;;;-5.06;60.43;95620.06;5072227;28;1476;-49
2022/01/23 03:11:04;;;;;;;;;;;;;;;-5.02;60.62;95622.50;5074052;28;1175;-49
2022/01/23 03:14:40;;;;;;;;;;;;;;;-5.25;60.43;95614.66;5074668;28;996;-49
2022/01/23 03:32:27;;;;;;;;;;;;;;;-5.39;59.77;95633.38;5073742;28;1046;-49
2022/01/23 03:34:53;;;;;;;;;;;;;;;-5.51;60.17;95645.91;5073811;28;1057;-49
2022/01/23 03:37:19;;;;;;;;;;;;;;;-5.70;60.47;95648.28;5073414;28;1906;-49
2022/01/23 03:39:46;;;;;;;;;;;;;;;-5.70;60.94;95650.06;5073235;28;1063;-49
2022/01/23 03:42:12;;;;;;;;;;;;;;;-5.75;60.98;95646.75;5073915;28;985;-50
2022/01/23 03:44:43;;;;;;;;;;;;;;;-5.98;60.96;95650.97;5073941;28;1043;-50
2022/01/23 03:47:20;;;;;;;;;;;;;;;-6.02;61.35;95648.53;5073570;28;1017;-49
2022/01/23 03:49:48;;;;;;;;;;;;;;;-6.04;61.34;95647.75;5073423;28;1049;-50
2022/01/23 03:52:14;;;;;;;;;;;;;;;-6.21;61.29;95643.91;5073702;28;1870;-49
2022/01/23 03:54:40;;;;;;;;;;;;;;;-6.40;62.23;95647.97;5073409;28;1092;-49
2022/01/23 03:57:07;;;;;;;;;;;;;;;-6.25;62.46;95649.28;5072802;28;1902;-49
2022/01/23 03:59:35;;;;;;;;;;;;;;;-6.08;62.10;95646.97;5073540;28;1067;-50
2022/01/23 04:02:01;;;;;;;;;;;;;;;-6.22;60.72;95646.56;5073251;28;1042;-49
2022/01/23 04:07:00;;;;;;;;;;;;;;;-6.75;62.67;95655.94;5073530;28;982;-49
2022/01/23 04:09:26;;;;;;;;;;;;;;;-6.62;62.50;95652.97;5073315;28;1055;-49
2022/01/23 04:11:52;;;;;;;;;;;;;;;-6.45;62.38;95655.06;5073081;28;1085;-49
2022/01/23 04:14:20;;;;;;;;;;;;;;;-6.65;61.72;95660.88;5073221;28;1012;-49
2022/01/23 04:17:09;;;;;;;;;;;;;;;-6.64;61.86;95666.03;5071735;28;1913;-49
2022/01/23 05:00:12;;;;;;;;;;;;;;;-7.18;63.07;95695.28;5076995;28;973;-49
2022/01/23 05:05:29;;;;;;;;;;;;;;;-7.09;63.09;95700.25;5076667;28;1030;-48
2022/01/23 05:07:56;;;;;;;;;;;;;;;-6.94;62.63;95710.22;5076511;28;1880;-49
2022/01/23 05:10:22;;;;;;;;;;;;;;;-7.08;61.88;95713.19;5076715;28;1069;-49
2022/01/23 05:12:48;;;;;;;;;;;;;;;-7.13;62.13;95709.00;5076498;28;985;-49
2022/01/23 05:15:14;;;;;;;;;;;;;;;-7.30;62.77;95719.88;5076711;28;1036;-48
2022/01/23 05:17:40;;;;;;;;;;;;;;;-7.11;62.68;95721.06;5076156;28;1993;-49
2022/01/23 05:20:07;;;;;;;;;;;;;;;-6.64;62.21;95725.00;5076602;28;1033;-49
2022/01/23 05:25:18;;;;;;;;;;;;;;;-6.38;60.64;95729.47;5076324;28;977;-49
2022/01/23 05:27:45;;;;;;;;;;;;;;;-6.87;61.77;95731.69;5076006;28;1118;-49
2022/01/23 05:30:11;;;;;;;;;;;;;;;-6.93;62.80;95737.91;5076616;28;1048;-49
2022/01/23 05:32:41;;;;;;;;;;;;;;;-6.82;62.67;95737.63;5076292;28;968;-49
2022/01/23 05:35:09;;;;;;;;;;;;;;;-6.85;62.59;95744.66;5076710;28;1725;-49
2022/01/23 05:37:37;;;;;;;;;;;;;;;-6.77;61.71;95740.09;5075878;28;2007;-49
2022/01/23 05:40:04;;;;;;;;;;;;;;;-6.99;61.71;95735.50;5076099;28;1108;-49
2022/01/23 05:42:30;;;;;;;;;;;;;;;-7.04;62.76;95745.16;5075858;28;1033;-49
2022/01/23 05:44:56;;;;;;;;;;;;;;;-7.17;62.65;95739.44;5076015;28;1045;-49
2022/01/23 05:47:22;;;;;;;;;;;;;;;-7.19;63.11;95745.56;5074750;28;966;-49
2022/01/23 05:49:48;;;;;;;;;;;;;;;-7.07;63.26;95740.03;5076145;28;1044;-49
2022/01/23 05:52:15;;;;;;;;;;;;;;;-6.94;63.55;95735.38;5075932;28;1048;-49
2022/01/23 05:54:41;;;;;;;;;;;;;;;-7.20;62.63;95738.66;5075798;28;1041;-48
2022/01/23 05:57:07;;;;;;;;;;;;;;;-7.35;63.54;95740.75;5073953;28;1913;-49
2022/01/23 05:59:33;;;;;;;;;;;;;;;-7.19;63.60;95742.94;5075774;28;1049;-49
2022/01/23 06:01:59;;;;;;;;;;;;;;;-6.91;63.19;95741.31;5075329;28;1036;-49
2022/01/23 06:04:26;;;;;;;;;;;;;;;-6.97;62.23;95751.06;5074528;28;1021;-49
2022/01/23 06:06:55;;;;;;;;;;;;;;;-7.04;63.33;95752.94;5075673;28;1100;-49
2022/01/23 06:09:22;;;;;;;;;;;;;;;-6.77;63.35;95760.91;5075613;28;1526;-49
2022/01/23 06:11:48;;;;;;;;;;;;;;;-6.71;62.90;95752.94;5075531;28;1046;-49
2022/01/23 06:14:15;;;;;;;;;;;;;;;-6.51;62.80;95761.03;5075350;28;1046;-49
2022/01/23 06:16:41;;;;;;;;;;;;;;;-6.40;62.61;95759.88;5075792;28;1993;-49
2022/01/23 06:19:07;;;;;;;;;;;;;;;-6.20;61.78;95754.06;5075450;28;1194;-49
2022/01/23 06:21:33;;;;;;;;;;;;;;;-6.27;62.73;95753.41;5075808;28;973;-49
2022/01/23 06:24:06;;;;;;;;;;;;;;;-6.09;62.14;95765.03;5073951;28;981;-49
2022/01/23 06:26:43;;;;;;;;;;;;;;;-5.90;62.53;95763.56;5074439;28;973;-49
2022/01/23 06:29:09;;;;;;;;;;;;;;;-5.31;61.17;95770.38;5075076;28;1033;-49
2022/01/23 06:31:36;;;;;;;;;;;;;;;-3.63;57.05;95768.72;5075173;28;1049;-49
2022/01/23 06:34:02;;;;;;;;;;;;;;;-2.41;54.36;95767.13;5074988;28;1037;-49
2022/01/23 06:36:28;;;;;;;;;;;;;;;-3.12;55.15;95767.53;5075069;28;1154;-49
2022/01/23 06:38:55;;;;;;;;;;;;;;;-4.13;58.19;95773.22;5074681;28;1910;-49
2022/01/23 06:41:21;;;;;;;;;;;;;;;-4.56;59.55;95771.31;5074866;28;1101;-49
2022/01/23 06:43:47;;;;;;;;;;;;;;;-4.85;61.41;95774.97;5073595;28;1077;-50
2022/01/23 06:46:13;;;;;;;;;;;;;;;-4.84;59.77;95776.66;5075134;28;926;-49
2022/01/23 06:48:39;;;;;;;;;;;;;;;-4.81;61.64;95779.16;5074796;28;1024;-49
2022/01/23 06:51:05;;;;;;;;;;;;;;;-4.80;62.57;95783.44;5074893;28;986;-49
2022/01/23 06:53:31;;;;;;;;;;;;;;;-4.72;62.97;95778.84;5074493;28;1041;-49
2022/01/23 06:55:57;;;;;;;;;;;;;;;-4.73;62.69;95780.56;5073250;28;1197;-49
2022/01/23 06:58:23;;;;;;;;;;;;;;;-4.68;63.92;95783.03;5074421;28;1909;-49
2022/01/23 07:00:49;;;;;;;;;;;;;;;-4.62;63.15;95787.19;5074630;28;1061;-49
2022/01/23 07:03:14;;;;;;;;;;;;;;;-4.49;62.56;95792.84;5073231;28;1025;-49
2022/01/23 07:05:40;;;;;;;;;;;;;;;-4.40;62.17;95789.88;5074833;28;974;-49
2022/01/23 07:08:06;;;;;;;;;;;;;;;-4.34;62.11;95776.63;5074153;28;965;-49
2022/01/23 07:10:33;;;;;;;;;;;;;;;-4.40;61.83;95782.91;5073120;28;973;-49
2022/01/23 07:12:59;;;;;;;;;;;;;;;-4.30;61.90;95777.38;5074491;28;1097;-49
2022/01/23 07:15:25;;;;;;;;;;;;;;;-4.16;61.55;95782.91;5073291;28;1868;-49
2022/01/23 07:17:51;;;;;;;;;;;;;;;-4.08;61.59;95777.41;5074143;28;1996;-49
2022/01/23 07:20:17;;;;;;;;;;;;;;;-3.99;61.43;95787.50;5073933;28;1034;-49
2022/01/23 07:22:43;;;;;;;;;;;;;;;-3.92;60.37;95779.38;5074111;28;1025;-49
2022/01/23 07:25:09;;;;;;;;;;;;;;;-3.76;59.37;95784.03;5073717;28;1041;-49
2022/01/23 07:27:46;;;;;;;;;;;;;;;-3.77;59.80;95782.34;5074152;28;1054;-49
2022/01/23 07:30:25;;;;;;;;;;;;;;;-3.69;61.15;95789.88;5073923;28;1076;-49
2022/01/23 07:32:51;;;;;;;;;;;;;;;-3.57;61.32;95787.63;5074230;28;993;-49
2022/01/23 07:35:17;;;;;;;;;;;;;;;-3.42;58.16;95791.41;5073535;28;1198;-49
2022/01/23 07:37:43;;;;;;;;;;;;;;;-3.30;57.72;95779.63;5073607;28;2012;-49
2022/01/23 07:40:09;;;;;;;;;;;;;;;-3.24;57.17;95778.53;5073761;28;982;-49
2022/01/23 07:42:35;;;;;;;;;;;;;;;-3.14;56.77;95772.81;5073911;28;1036;-49
2022/01/23 07:45:02;;;;;;;;;;;;;;;-3.04;56.60;95775.91;5073504;28;1045;-49
2022/01/23 07:47:28;;;;;;;;;;;;;;;-2.88;56.86;95772.66;5073873;28;997;-49
2022/01/23 07:49:55;;;;;;;;;;;;;;;-2.90;55.62;95779.72;5073335;28;1011;-49
2022/01/23 07:52:21;;;;;;;;;;;;;;;-2.82;55.19;95781.09;5073303;28;1079;-49
2022/01/23 07:54:47;;;;;;;;;;;;;;;-2.90;55.31;95779.72;5073532;28;1033;-49
2022/01/23 07:57:13;;;;;;;;;;;;;;;-2.88;55.39;95775.28;5073130;28;1914;-49
2022/01/23 07:59:40;;;;;;;;;;;;;;;-2.68;56.60;95780.50;5073254;28;1057;-49
2022/01/23 08:02:06;;;;;;;;;;;;;;;-2.48;55.46;95782.28;5073532;28;985;-49
2022/01/23 08:04:32;;;;;;;;;;;;;;;-2.55;55.46;95788.69;5073189;28;1093;-49
2022/01/23 08:07:13;;;;;;;;;;;;;;;-2.56;55.40;95785.25;5073486;28;980;-49
2022/01/23 08:09:39;;;;;;;;;;;;;;;-2.48;55.01;95795.38;5073241;28;1100;-49
2022/01/23 08:12:06;;;;;;;;;;;;;;;-2.46;55.53;95796.16;5073682;28;981;-49
2022/01/23 08:14:32;;;;;;;;;;;;;;;-2.50;55.32;95791.97;5073395;28;1055;-49
2022/01/23 08:16:58;;;;;;;;;;;;;;;-2.47;55.21;95788.38;5073275;28;1913;-49
2022/01/23 08:19:24;;;;;;;;;;;;;;;-2.41;55.30;95788.97;5073013;28;1025;-49
2022/01/23 08:21:50;;;;;;;;;;;;;;;-2.32;54.46;95792.94;5073423;28;977;-49
2022/01/23 08:24:16;;;;;;;;;;;;;;;-2.32;53.88;95790.31;5072890;28;1008;-49
2022/01/23 08:26:42;;;;;;;;;;;;;;;-2.31;54.63;95786.78;5073172;28;1047;-49
2022/01/23 08:29:09;;;;;;;;;;;;;;;-2.35;54.18;95777.38;5072827;28;973;-49
2022/01/23 08:31:35;;;;;;;;;;;;;;;-2.23;54.87;95796.94;5073417;28;1033;-48
2022/01/23 08:34:01;;;;;;;;;;;;;;;-1.99;53.61;95793.22;5073029;28;1052;-49
2022/01/23 08:36:29;;;;;;;;;;;;;;;-1.97;53.34;95795.78;5072643;28;1216;-49
2022/01/23 08:38:58;;;;;;;;;;;;;;;-1.96;52.72;95787.81;5073170;28;1983;-48
2022/01/23 08:43:51;;;;;;;;;;;;;;;-1.52;51.73;95798.94;5073135;28;1025;-50
2022/01/23 08:46:17;;;;;;;;;;;;;;;-1.30;51.69;95804.88;5073015;28;1048;-49
2022/01/23 08:48:44;;;;;;;;;;;;;;;-1.20;51.84;95800.88;5073111;28;981;-49
2022/01/23 08:51:11;;;;;;;;;;;;;;;-1.00;52.53;95804.34;5072700;28;1037;-49
2022/01/23 08:53:37;;;;;;;;;;;;;;;-1.22;51.04;95797.47;5073199;28;1064;-49
2022/01/23 08:56:03;;;;;;;;;;;;;;;-1.33;52.45;95798.94;5072594;28;1571;-49
2022/01/23 08:58:29;;;;;;;;;;;;;;;-1.35;52.16;95799.00;5072909;28;1987;-49
2022/01/23 09:00:55;;;;;;;;;;;;;;;-1.40;53.13;95809.72;5072755;28;977;-49
2022/01/23 09:03:21;;;;;;;;;;;;;;;-1.57;53.31;95802.66;5072964;28;965;-49
2022/01/23 09:05:47;;;;;;;;;;;;;;;-1.61;54.27;95802.88;5072602;28;1101;-50
2022/01/23 09:08:13;;;;;;;;;;;;;;;-1.53;54.90;95805.97;5072511;28;1105;-49
2022/01/23 09:10:42;;;;;;;;;;;;;;;-1.46;55.15;95810.03;5072831;28;1064;-49
2022/01/23 09:13:29;;;;;;;;;;;;;;;-1.36;54.87;95806.97;5072716;28;1032;-52
2022/01/23 09:15:55;;;;;;;;;;;;;;;-1.25;54.15;95804.66;5072500;28;1112;-49
2022/01/23 09:18:22;;;;;;;;;;;;;;;-1.25;54.57;95807.28;5072853;28;1906;-50
2022/01/23 09:20:48;;;;;;;;;;;;;;;-1.19;54.50;95804.38;5072459;28;1034;-49
2022/01/23 09:23:14;;;;;;;;;;;;;;;-0.71;53.63;95802.88;5072567;28;993;-48
2022/01/23 09:25:40;;;;;;;;;;;;;;;-0.42;52.65;95800.56;5072327;28;1066;-49
2022/01/23 09:28:12;;;;;;;;;;;;;;;0.01;51.84;95800.13;5072407;28;969;-49
2022/01/23 09:30:42;;;;;;;;;;;;;;;0.62;51.38;95796.78;5072319;28;2028;-49
2022/01/23 09:33:08;;;;;;;;;;;;;;;0.65;49.53;95787.91;5072639;28;1065;-49
2022/01/23 09:35:34;;;;;;;;;;;;;;;-0.06;51.96;95789.94;5072423;28;1212;-49
2022/01/23 09:38:00;;;;;;;;;;;;;;;-0.37;52.89;95784.56;5074222;28;1910;-49
2022/01/23 09:40:27;;;;;;;;;;;;;;;-0.45;52.00;95788.44;5075938;28;1056;-49
2022/01/23 09:43:06;;;;;;;;;;;;;;;-0.62;51.64;95784.03;5076030;28;1081;-49
2022/01/23 09:45:33;;;;;;;;;;;;;;;-0.64;51.14;95788.53;5076102;28;1032;-49
2022/01/23 09:48:00;;;;;;;;;;;;;;;-0.69;51.10;95784.44;5076150;28;1109;-51
2022/01/23 09:50:26;;;;;;;;;;;;;;;-0.74;50.99;95779.44;5075601;28;1264;-49
2022/01/23 09:52:53;;;;;;;;;;;;;;;-0.74;49.98;95778.56;5075833;28;1032;-48
2022/01/23 09:55:19;;;;;;;;;;;;;;;-0.79;50.52;95778.81;5075638;28;1001;-49
2022/01/23 09:57:47;;;;;;;;;;;;;;;-0.76;50.11;95778.63;5075289;28;1906;-49
2022/01/23 10:00:14;;;;;;;;;;;;;;;-0.77;50.26;95781.34;5075743;28;973;-49
2022/01/23 10:02:41;;;;;;;;;;;;;;;-0.79;50.39;95776.16;5075742;28;1000;-49
2022/01/23 10:05:07;;;;;;;;;;;;;;;-0.84;49.44;95786.88;5075511;28;1113;-49
2022/01/23 10:07:38;;;;;;;;;;;;;;;-0.95;50.39;95772.59;5075590;28;961;-49
2022/01/23 10:10:15;;;;;;;;;;;;;;;-0.76;49.44;95773.38;5075562;28;1088;-49
2022/01/23 10:12:42;;;;;;;;;;;;;;;-0.76;50.12;95769.91;5075708;28;1055;-49
2022/01/23 10:15:09;;;;;;;;;;;;;;;-0.76;50.45;95770.75;5075576;28;912;-49
2022/01/23 10:17:36;;;;;;;;;;;;;;;-0.69;49.98;95768.69;5075268;28;1991;-49
2022/01/23 10:20:04;;;;;;;;;;;;;;;-0.75;50.58;95769.00;5075651;28;1025;-49
2022/01/23 10:22:31;;;;;;;;;;;;;;;-0.73;50.48;95778.47;5075026;28;1049;-49
2022/01/23 10:25:04;;;;;;;;;;;;;;;-0.80;51.25;95774.47;5075442;28;1042;-49
2022/01/23 10:27:49;;;;;;;;;;;;;;;-0.63;50.33;95768.34;5075066;28;977;-49
2022/01/23 10:30:23;;;;;;;;;;;;;;;-0.67;50.15;95766.81;5075337;28;1028;-49
2022/01/23 10:33:22;;;;;;;;;;;;;;;-0.70;50.05;95764.34;5075214;28;985;-49
2022/01/23 10:36:11;;;;;;;;;;;;;;;-0.70;48.65;95759.09;5030670;28;1230;-49
2022/01/23 10:38:40;;;;;;;;;;;;;;;-0.75;48.91;95753.25;5067028;28;2078;-49
2022/01/23 10:41:26;;;;;;;;;;;;;;;-0.81;49.10;95760.50;5075083;28;997;-49
2022/01/23 10:49:47;;;;;;;;;;;;;;;-0.38;47.71;95735.56;5074781;28;1017;-49
2022/01/23 10:52:30;;;;;;;;;;;;;;;-0.25;47.24;95745.38;5074648;28;1040;-49
2022/01/23 10:54:56;;;;;;;;;;;;;;;-0.18;46.84;95739.78;5074823;28;1018;-49
2022/01/23 10:57:24;;;;;;;;;;;;;;;-0.16;47.64;95737.91;5073992;28;1906;-49
2022/01/23 10:59:52;;;;;;;;;;;;;;;0.11;46.11;95743.47;5074894;28;1063;-49
2022/01/23 11:02:21;;;;;;;;;;;;;;;0.14;46.57;95732.78;5074583;28;1020;-49
2022/01/23 11:04:52;;;;;;;;;;;;;;;0.04;46.56;95727.19;5074306;28;1045;-49
2022/01/23 11:07:18;;;;;;;;;;;;;;;-0.15;46.13;95723.84;5074416;28;1052;-49
2022/01/23 11:09:44;;;;;;;;;;;;;;;-0.37;46.65;95717.09;5074667;28;990;-49
2022/01/23 11:12:29;;;;;;;;;;;;;;;-0.51;46.71;95711.72;5074013;28;1026;-49
2022/01/23 11:17:50;;;;;;;;;;;;;;;-0.64;48.78;95715.00;5073987;28;1910;-49
2022/01/23 11:20:31;;;;;;;;;;;;;;;-0.83;48.66;95722.13;5073928;28;1108;-49
2022/01/23 11:23:17;;;;;;;;;;;;;;;-0.91;49.83;95705.88;5074184;28;965;-49
2022/01/23 11:25:44;;;;;;;;;;;;;;;-0.96;49.99;95711.38;5074038;28;1034;-49
2022/01/23 11:28:11;;;;;;;;;;;;;;;-0.58;49.10;95699.84;5073692;28;1222;-49
2022/01/23 11:30:41;;;;;;;;;;;;;;;-0.27;48.20;95694.66;5073861;28;1038;-49
2022/01/23 11:33:09;;;;;;;;;;;;;;;0.03;48.57;95691.31;5074000;28;974;-50
2022/01/23 11:35:36;;;;;;;;;;;;;;;0.22;47.92;95685.88;5073897;28;1221;-49
2022/01/23 11:38:04;;;;;;;;;;;;;;;0.20;47.54;95682.50;5073758;28;1898;-50
2022/01/23 11:54:01;;;;;;;;;;;;;;;0.00;49.48;95691.50;5073695;28;1137;-49
2022/01/23 11:56:27;;;;;;;;;;;;;;;-0.16;50.54;95685.34;5073324;28;1239;-49
2022/01/23 11:58:54;;;;;;;;;;;;;;;0.15;50.11;95682.75;5073058;28;1983;-49
2022/01/23 12:01:24;;;;;;;;;;;;;;;0.36;49.68;95679.84;5071697;28;1219;-50
2022/01/23 12:04:09;;;;;;;;;;;;;;;0.48;49.48;95676.53;5073659;28;1040;-50
2022/01/23 12:06:36;;;;;;;;;;;;;;;0.84;48.11;95672.72;5073555;28;1048;-49
2022/01/23 12:09:11;;;;;;;;;;;;;;;1.24;46.92;95662.47;5073293;28;1016;-49
2022/01/23 12:16:52;;;;;;;;;;;;;;;0.76;46.68;95661.81;5073505;28;981;-49
2022/01/23 12:19:19;;;;;;;;;;;;;;;0.72;47.63;95660.25;5072861;28;1069;-49
2022/01/23 12:21:46;;;;;;;;;;;;;;;1.23;46.59;95665.19;5073217;28;1049;-49
2022/01/23 12:24:14;;;;;;;;;;;;;;;1.27;46.95;95654.41;5073180;28;977;-49
2022/01/23 12:26:41;;;;;;;;;;;;;;;1.09;46.13;95652.84;5073484;28;969;-49
2022/01/23 12:29:14;;;;;;;;;;;;;;;1.09;45.92;95653.69;5072801;28;1032;-49
2022/01/23 12:31:41;;;;;;;;;;;;;;;0.83;46.67;95657.00;5073415;28;1060;-49
2022/01/23 12:34:07;;;;;;;;;;;;;;;0.67;46.18;95650.00;5072793;28;1046;-49
2022/01/23 12:36:34;;;;;;;;;;;;;;;0.44;44.55;95639.94;5073212;28;1224;-49
2022/01/23 12:39:06;;;;;;;;;;;;;;;0.19;45.24;95655.34;5072867;28;1909;-49
2022/01/23 12:41:34;;;;;;;;;;;;;;;0.10;45.41;95645.34;5073247;28;964;-49
2022/01/23 12:44:20;;;;;;;;;;;;;;;0.19;45.46;95646.63;5072916;28;1016;-49
2022/01/23 12:46:50;;;;;;;;;;;;;;;0.08;44.92;95654.25;5073242;28;1114;-49
2022/01/23 12:49:16;;;;;;;;;;;;;;;0.03;45.49;95651.03;5072541;28;1045;-49
2022/01/23 12:51:42;;;;;;;;;;;;;;;-0.16;45.74;95644.13;5073152;28;969;-49
2022/01/23 12:54:13;;;;;;;;;;;;;;;-0.28;46.50;95642.19;5072680;28;1116;-49
2022/01/23 12:56:44;;;;;;;;;;;;;;;-0.42;47.66;95650.81;5072778;28;1101;-49
2022/01/23 12:59:33;;;;;;;;;;;;;;;-0.21;48.07;95652.28;5072389;28;1968;-49
2022/01/23 13:02:04;;;;;;;;;;;;;;;-0.27;49.27;95654.38;5073135;28;1005;-49
2022/01/23 13:04:31;;;;;;;;;;;;;;;-0.06;49.32;95652.38;5072709;28;1056;-50
2022/01/23 13:07:04;;;;;;;;;;;;;;;0.08;49.42;95664.78;5072929;28;1029;-49
2022/01/23 13:12:52;;;;;;;;;;;;;;;0.14;49.22;95660.00;5073168;28;1966;-49
2022/01/23 13:30:45;;;;;;;;;;;;;;;-0.20;50.20;95645.25;5076201;28;977;-49
2022/01/23 13:33:19;;;;;;;;;;;;;;;-0.01;50.23;95645.09;5076070;28;970;-49
2022/01/23 13:35:50;;;;;;;;;;;;;;;-0.05;49.77;95647.03;5076278;28;1162;-49
2022/01/23 13:38:17;;;;;;;;;;;;;;;-0.12;49.47;95639.56;5075998;28;1905;-49
2022/01/23 13:40:44;;;;;;;;;;;;;;;-0.23;50.02;95634.88;5076050;28;1032;-49
2022/01/23 13:59:24;;;;;;;;;;;;;;;-0.47;49.52;95640.56;5075496;28;1902;-49
2022/01/23 14:04:22;;;;;;;;;;;;;;;-0.90;47.82;95641.97;5075495;28;1076;-49
2022/01/23 14:06:48;;;;;;;;;;;;;;;-0.99;48.46;95646.78;5075432;28;2011;-49
2022/01/23 14:09:16;;;;;;;;;;;;;;;-1.01;47.05;95647.75;5075557;28;1045;-49
2022/01/23 14:11:43;;;;;;;;;;;;;;;-1.11;47.70;95649.16;5075412;28;1892;-49
2022/01/23 14:14:18;;;;;;;;;;;;;;;-1.27;47.59;95647.31;5075523;28;1036;-49
2022/01/23 14:16:45;;;;;;;;;;;;;;;-1.24;48.08;95651.56;5075602;28;989;-49
2022/01/23 14:19:12;;;;;;;;;;;;;;;-1.19;47.49;95652.19;5075413;28;1981;-49
2022/01/23 14:21:42;;;;;;;;;;;;;;;-1.17;48.47;95652.94;5075508;28;1056;-49
2022/01/23 14:24:08;;;;;;;;;;;;;;;-1.16;48.70;95645.91;5074785;28;1061;-49
2022/01/23 14:26:34;;;;;;;;;;;;;;;-1.23;48.40;95655.88;5075170;28;1065;-48
2022/01/23 14:29:04;;;;;;;;;;;;;;;-1.33;49.00;95649.38;5075317;28;1056;-49
2022/01/23 14:31:37;;;;;;;;;;;;;;;-1.36;49.28;95647.78;5074862;28;973;-49
2022/01/23 14:34:05;;;;;;;;;;;;;;;-1.46;49.26;95650.03;5075331;28;973;-49
2022/01/23 14:36:33;;;;;;;;;;;;;;;-1.51;50.74;95645.91;5075099;28;1173;-49
2022/01/23 14:39:00;;;;;;;;;;;;;;;-1.65;50.22;95638.72;5074921;28;1991;-50
2022/01/23 14:41:31;;;;;;;;;;;;;;;-1.63;48.89;95644.72;5075015;28;973;-49
2022/01/23 14:43:57;;;;;;;;;;;;;;;-1.60;48.88;95647.22;5075224;28;945;-49
2022/01/23 14:46:23;;;;;;;;;;;;;;;-1.59;49.55;95649.75;5074876;28;1051;-49
2022/01/23 14:48:51;;;;;;;;;;;;;;;-1.66;48.79;95652.75;5075031;28;997;-49
2022/01/23 14:51:23;;;;;;;;;;;;;;;-1.82;48.79;95653.50;5074489;28;1042;-49
2022/01/23 14:53:49;;;;;;;;;;;;;;;-1.84;49.35;95659.72;5075072;28;973;-49
2022/01/23 14:56:15;;;;;;;;;;;;;;;-1.72;49.19;95660.94;5074403;28;1227;-49
2022/01/23 14:58:42;;;;;;;;;;;;;;;-1.75;48.76;95659.28;5074313;28;1906;-49
2022/01/23 15:01:10;;;;;;;;;;;;;;;-1.77;49.17;95659.34;5074492;28;982;-49
2022/01/23 15:03:37;;;;;;;;;;;;;;;-1.71;48.71;95663.47;5074774;28;986;-49
2022/01/23 15:06:04;;;;;;;;;;;;;;;-1.63;49.00;95670.94;5074267;28;1085;-49
2022/01/23 15:08:30;;;;;;;;;;;;;;;-1.60;48.68;95670.81;5074318;28;1049;-49
2022/01/23 15:10:57;;;;;;;;;;;;;;;-1.66;48.77;95674.59;5074293;28;977;-49
2022/01/23 15:13:23;;;;;;;;;;;;;;;-1.71;49.36;95667.88;5074465;28;964;-49
2022/01/23 15:15:50;;;;;;;;;;;;;;;-1.72;49.53;95679.28;5074350;28;1031;-49
2022/01/23 15:18:17;;;;;;;;;;;;;;;-1.79;49.11;95676.09;5073976;28;1988;-49
2022/01/23 15:20:43;;;;;;;;;;;;;;;-1.82;49.36;95674.47;5074271;28;1031;-49
2022/01/23 15:23:11;;;;;;;;;;;;;;;-1.80;49.85;95677.03;5074451;28;982;-49
2022/01/23 15:25:38;;;;;;;;;;;;;;;-1.76;50.42;95678.59;5074153;28;996;-49
2022/01/23 15:28:05;;;;;;;;;;;;;;;-1.78;50.15;95683.91;5073586;28;969;-49
2022/01/23 15:30:31;;;;;;;;;;;;;;;-1.87;50.31;95683.47;5073917;28;1897;-49
2022/01/23 15:32:57;;;;;;;;;;;;;;;-1.87;49.48;95680.88;5074012;28;981;-49
2022/01/23 15:35:24;;;;;;;;;;;;;;;-1.85;49.86;95679.84;5073283;28;1232;-49
2022/01/23 15:37:50;;;;;;;;;;;;;;;-1.91;50.18;95685.41;5072696;28;1979;-49
2022/01/23 15:40:19;;;;;;;;;;;;;;;-1.98;50.55;95682.19;5073736;28;1013;-49
2022/01/23 15:42:46;;;;;;;;;;;;;;;-1.97;50.40;95681.28;5074174;28;1024;-49
2022/01/23 15:45:12;;;;;;;;;;;;;;;-2.12;50.12;95689.88;5073706;28;1033;-49
2022/01/23 15:47:39;;;;;;;;;;;;;;;-2.28;51.45;95694.13;5073580;28;1094;-49
2022/01/23 15:50:06;;;;;;;;;;;;;;;-2.20;50.21;95698.09;5073787;28;1032;-49
2022/01/23 15:52:32;;;;;;;;;;;;;;;-2.31;50.26;95700.34;5073459;28;1892;-49
2022/01/23 15:54:58;;;;;;;;;;;;;;;-2.23;50.45;95702.63;5073848;28;1056;-49
2022/01/23 15:57:24;;;;;;;;;;;;;;;-2.18;50.71;95705.88;5072858;28;1914;-49
2022/01/23 15:59:50;;;;;;;;;;;;;;;-2.04;50.13;95702.63;5073883;28;1096;-49
2022/01/23 16:02:16;;;;;;;;;;;;;;;-2.03;50.34;95712.16;5073422;28;1005;-49
2022/01/23 16:04:42;;;;;;;;;;;;;;;-1.99;49.66;95708.50;5073592;28;984;-49
2022/01/23 16:07:12;;;;;;;;;;;;;;;-2.06;50.03;95720.19;5073133;28;1120;-49
2022/01/23 16:09:38;;;;;;;;;;;;;;;-2.16;49.96;95720.59;5073646;28;1069;-49
2022/01/23 16:12:04;;;;;;;;;;;;;;;-2.20;50.20;95716.44;5073432;28;981;-49
2022/01/23 16:14:30;;;;;;;;;;;;;;;-2.16;49.82;95718.00;5073220;28;1096;-49
2022/01/23 16:16:57;;;;;;;;;;;;;;;-2.09;50.58;95715.91;5073315;28;1040;-49
2022/01/23 16:19:23;;;;;;;;;;;;;;;-2.21;50.36;95719.97;5073396;28;1914;-49
2022/01/23 16:21:52;;;;;;;;;;;;;;;-2.16;50.59;95723.22;5073155;28;1041;-49
2022/01/23 16:24:18;;;;;;;;;;;;;;;-2.04;50.35;95708.69;5073320;28;977;-49
2022/01/23 16:26:46;;;;;;;;;;;;;;;-2.10;50.86;95709.00;5073092;28;1037;-49
2022/01/23 16:29:13;;;;;;;;;;;;;;;-2.00;50.44;95714.66;5073100;28;997;-49
2022/01/23 16:31:39;;;;;;;;;;;;;;;-2.04;50.84;95718.34;5073222;28;1046;-49
2022/01/23 16:34:05;;;;;;;;;;;;;;;-2.11;50.98;95722.16;5072889;28;1065;-50
2022/01/23 16:36:33;;;;;;;;;;;;;;;-2.23;51.29;95728.81;5072995;28;1198;-49
2022/01/23 16:38:59;;;;;;;;;;;;;;;-2.19;50.85;95730.38;5073023;28;1910;-49
2022/01/23 16:41:25;;;;;;;;;;;;;;;-2.22;51.54;95722.63;5073161;28;1005;-50